Skip to main content.
 TIME   TEMPERATURE   WINDSPEED   DIRECTION   HUMIDITY   BAROMETER   RAINFALL 
4:35 16.0°C (60.8°F) 27.8 kmh (17.3 mph) W 72% 1015.9hPa (30.00 inHg) 0.0mm (0.00 in.)
3:35 17.0°C (62.6 °F) 24.1 kmh (15.0 mph) W 67% 1015.9hPa (30.00 inHg) 0.0mm (0.00 in.)
2:35 17.0°C (62.6 °F) 20.4 kmh (12.7 mph) W 63% 1016.9hPa (30.03 inHg) 0.0mm (0.00 in.)
1:35 17.0°C (62.6 °F) 18.5 kmh (11.5 mph) WNW 63% 1017.9hPa (30.06 inHg) 0.0mm (0.00 in.)
12:35 17.0°C (62.6 °F) 22.2 kmh (13.8 mph) WNW 67% 1019.0hPa (30.09 inHg) 0.0mm (0.00 in.)
11:30 17.0°C (62.6 °F) 16.7 kmh (10.4 mph) N 63% 1019.0hPa (30.09 inHg) 0.0mm (0.00 in.)
10:30 16.0°C (60.8 °F) 18.5 kmh (11.5 mph) N 72% 1019.0hPa (30.09 inHg) 0.0mm (0.00 in.)
9:30 15.0°C (59.0 °F) 14.8 kmh (9.2 mph) N 82% 1020.0hPa (30.12 inHg) 0.0mm (0.00 in.)
8:30 14.0°C (57.2 °F) 16.7 kmh (10.4 mph) N 87% 1019.0hPa (30.09 inHg) 0.0mm (0.00 in.)
7:30 12.0°C (53.6 °F) 13.0 kmh (8.1 mph) N 100% 1020.0hPa (30.12 inHg) 0.0mm (0.00 in.)
6:30 12.0°C (53.6 °F) 13.0 kmh (8.1 mph) N 93% 1020.0hPa (30.12 inHg) 0.0mm (0.00 in.)
5:30 12.0°C (53.6 °F) 16.7 kmh (10.4 mph) N 93% 1020.0hPa (30.12 inHg) 0.0mm (0.00 in.)
4:30 12.0°C (53.6 °F) 13.0 kmh (8.1 mph) N 93% 1020.0hPa (30.12 inHg) 0.0mm (0.00 in.)
3:30 12.0°C (53.6 °F) 7.4 kmh (4.6 mph) N 93% 1020.0hPa (30.12 inHg) 0.0mm (0.00 in.)
2:30 12.0°C (53.6 °F) 7.4 kmh (4.6 mph) N 81% 1020.0hPa (30.12 inHg) 0.0mm (0.00 in.)
1:30 12.0°C (53.6 °F) 11.1 kmh (6.9 mph) N 93% 1020.0hPa (30.12 inHg) 0.0mm (0.00 in.)
12:30 12.0°C (53.6 °F) 7.4 kmh (4.6 mph) N 93% 1021.0hPa (30.15 inHg) 0.0mm (0.00 in.)
11:30 12.0°C (53.6 °F) 7.4 kmh (4.6 mph) N 93% 1021.0hPa (30.15 inHg) 0.0mm (0.00 in.)
10:30 13.0°C (55.4 °F) 5.6 kmh (3.5 mph) N 93% 1021.0hPa (30.15 inHg) 0.0mm (0.00 in.)
9:30 13.0°C (55.4 °F) 13.0 kmh (8.1 mph) N 93% 1022.0hPa (30.18 inHg) 0.0mm (0.00 in.)
8:30 13.0°C (55.4 °F) 5.6 kmh (3.5 mph) N 87% 1021.0hPa (30.15 inHg) 0.0mm (0.00 in.)
7:30 15.0°C (59.0 °F) 5.6 kmh (3.5 mph) N 76% 1021.0hPa (30.15 inHg) 0.0mm (0.00 in.)
6:30 17.0°C (62.6 °F) 5.6 kmh (3.5 mph) N 63% 1021.0hPa (30.15 inHg) 0.0mm (0.00 in.)
5:30 18.0°C (64.4 °F) 9.3 kmh (5.8 mph) N 55% 1021.0hPa (30.15 inHg) 0.0mm (0.00 in.)